Time;durP1;ratioP1;P1;durP2;ratioP2;P2;SDS_P1;SDS_P2;PMS_P1;PMS_P2;Temp;Humidity;BMP_temperature;BMP_pressure;BME280_temperature;BME280_humidity;BME280_pressure;Samples;Min_cycle;Max_cycle;Signal;HPM_P1;HPM_P2
2023/06/12 00:02:32;;;;;;;15.30;6.40;;;;;;;16.08;47.09;100926.34;112189;1245;22295;-84
2023/06/12 00:05:19;;;;;;;8.50;5.80;;;;;;;16.04;47.43;100924.23;112324;1238;23014;-84
2023/06/12 00:08:05;;;;;;;8.00;6.30;;;;;;;16.01;47.78;100922.28;112642;1245;21971;-84
2023/06/12 00:10:53;;;;;;;12.20;7.00;;;;;;;15.99;48.13;100923.44;111581;1252;21963;-83
2023/06/12 00:13:25;;;;;;;8.20;6.80;;;;;;;15.97;48.16;100923.88;112019;1246;21974;-83
2023/06/12 00:15:59;;;;;;;8.50;6.40;;;;;;;15.94;48.32;100923.53;111756;1250;21954;-83
2023/06/12 00:18:28;;;;;;;8.80;6.10;;;;;;;15.93;48.56;100924.80;111130;1256;21968;-82
2023/06/12 00:21:02;;;;;;;12.40;6.50;;;;;;;15.91;48.75;100925.74;111212;1256;21964;-82
2023/06/12 00:23:46;;;;;;;10.50;6.80;;;;;;;15.89;49.08;100926.06;111141;1259;21967;-83
2023/06/12 00:26:23;;;;;;;11.90;7.20;;;;;;;15.85;49.24;100925.20;110978;1257;23737;-83
2023/06/12 00:28:55;;;;;;;8.40;6.60;;;;;;;15.82;49.32;100923.25;111153;1257;21980;-82
2023/06/12 00:31:34;;;;;;;9.10;6.80;;;;;;;15.77;49.56;100923.84;111174;1257;22085;-83
2023/06/12 00:34:07;;;;;;;9.70;6.90;;;;;;;15.72;49.84;100919.00;111406;1253;21994;-83
2023/06/12 00:36:48;;;;;;;8.30;6.80;;;;;;;15.70;50.10;100920.14;111685;1252;22103;-83
2023/06/12 00:39:23;;;;;;;8.70;6.90;;;;;;;15.67;50.39;100919.08;111629;1252;22987;-83
2023/06/12 00:41:56;;;;;;;8.10;6.30;;;;;;;15.66;50.56;100920.32;111701;1246;21968;-82
2023/06/12 00:44:47;;;;;;;8.60;6.90;;;;;;;15.64;50.66;100921.11;112772;1241;21969;-83
2023/06/12 00:47:25;;;;;;;12.80;7.00;;;;;;;15.60;50.66;100922.55;112717;1241;23014;-82
2023/06/12 00:49:58;;;;;;;10.60;7.00;;;;;;;15.55;50.86;100923.86;112754;1238;22432;-84
2023/06/12 00:52:49;;;;;;;10.70;6.40;;;;;;;15.48;51.13;100929.43;112799;1241;21966;-83
2023/06/12 00:55:31;;;;;;;8.70;6.60;;;;;;;15.42;51.41;100931.12;112776;1241;24366;-83
2023/06/12 01:01:08;;;;;;;8.10;7.30;;;;;;;15.36;51.74;100923.92;112983;1236;21969;-81
2023/06/12 01:03:56;;;;;;;11.70;6.70;;;;;;;15.33;51.89;100922.98;113583;1236;23096;-81
2023/06/12 01:07:13;;;;;;;8.20;7.00;;;;;;;15.29;51.93;100921.78;113156;1236;24873;-83
2023/06/12 01:10:15;;;;;;;8.60;6.50;;;;;;;15.23;52.18;100919.80;112599;1243;23681;-82
2023/06/12 01:13:02;;;;;;;8.90;6.40;;;;;;;15.17;52.59;100921.30;112695;1242;21978;-82
2023/06/12 01:15:32;;;;;;;9.80;6.70;;;;;;;15.16;52.58;100921.36;112316;1242;23838;-83
2023/06/12 01:18:08;;;;;;;9.30;7.30;;;;;;;15.16;52.76;100922.59;111977;1248;22382;-81
2023/06/12 01:20:57;;;;;;;12.20;7.80;;;;;;;15.13;52.70;100925.53;112195;1248;21972;-83
2023/06/12 01:23:48;;;;;;;9.20;7.40;;;;;;;15.10;52.92;100926.38;111994;1248;21972;-82
2023/06/12 01:27:10;;;;;;;8.60;7.00;;;;;;;15.06;53.30;100926.20;112228;1248;22677;-82
2023/06/12 01:30:22;;;;;;;11.60;7.80;;;;;;;15.03;53.47;100927.92;112040;1248;21998;-81
2023/06/12 01:32:58;;;;;;;10.80;7.50;;;;;;;15.00;53.87;100930.19;112251;1248;23730;-80
2023/06/12 01:35:30;;;;;;;8.80;7.40;;;;;;;15.00;53.78;100927.74;112257;1248;23025;-82
2023/06/12 01:38:16;;;;;;;;;;;;;;;14.98;53.73;100929.94;111664;1251;23674;-81
2023/06/12 01:40:53;;;;;;;7.80;6.60;;;;;;;14.86;54.25;100931.02;111918;1250;24543;-83
2023/06/12 01:43:36;;;;;;;15.30;7.60;;;;;;;14.84;54.47;100927.95;111903;1247;22014;-82
2023/06/12 01:46:06;;;;;;;11.10;7.40;;;;;;;14.85;54.70;100928.23;112388;1241;22402;-81
2023/06/12 01:48:39;;;;;;;8.70;7.40;;;;;;;14.84;54.72;100926.20;112791;1241;23008;-80
2023/06/12 01:51:08;;;;;;;10.20;7.30;;;;;;;14.85;54.76;100929.83;112668;1241;21968;-81
2023/06/12 01:53:44;;;;;;;9.40;7.00;;;;;;;14.83;54.91;100927.80;112625;1241;21907;-81
2023/06/12 01:56:17;;;;;;;10.00;7.20;;;;;;;14.80;54.94;100932.48;112568;1242;25026;-81
2023/06/12 01:59:01;;;;;;;10.00;7.30;;;;;;;14.76;55.05;100931.27;112681;1245;21942;-81
2023/06/12 02:01:48;;;;;;;7.50;6.70;;;;;;;14.73;55.29;100927.77;112418;1244;22574;-84
2023/06/12 02:04:24;;;;;;;8.90;7.10;;;;;;;14.69;55.47;100927.73;112341;1244;21971;-82
2023/06/12 02:06:54;;;;;;;9.50;7.30;;;;;;;14.67;55.69;100930.63;112523;1244;22086;-82
2023/06/12 02:09:24;;;;;;;10.40;7.10;;;;;;;14.66;55.80;100931.56;112346;1244;21960;-82
2023/06/12 02:12:00;;;;;;;8.50;6.90;;;;;;;14.64;56.16;100931.31;112326;1244;23594;-83
2023/06/12 02:14:33;;;;;;;9.90;7.10;;;;;;;14.62;56.33;100929.13;112564;1239;21947;-83
2023/06/12 02:17:05;;;;;;;9.70;7.00;;;;;;;14.60;56.37;100934.27;112423;1242;23016;-84
2023/06/12 02:19:36;;;;;;;;;;;;;;;14.58;56.39;100931.55;112672;1242;21942;-83
2023/06/12 02:22:15;;;;;;;10.50;7.70;;;;;;;14.47;56.80;100934.16;112690;1242;22297;-84
2023/06/12 02:24:50;;;;;;;8.10;7.20;;;;;;;14.45;56.99;100932.84;112384;1242;21950;-83
2023/06/12 02:27:26;;;;;;;10.50;7.90;;;;;;;14.43;57.01;100932.39;112619;1242;21965;-82
2023/06/12 02:30:03;;;;;;;9.00;8.20;;;;;;;14.40;57.20;100931.29;112385;1242;23064;-84
2023/06/12 02:32:40;;;;;;;9.50;7.70;;;;;;;14.39;57.33;100929.23;112601;1242;23591;-83
2023/06/12 02:35:17;;;;;;;14.50;9.20;;;;;;;14.38;57.46;100930.14;112355;1242;21955;-84
2023/06/12 02:37:55;;;;;;;17.60;9.20;;;;;;;14.36;57.64;100931.31;112340;1242;22374;-83
2023/06/12 02:40:26;;;;;;;9.90;7.50;;;;;;;14.34;57.95;100931.57;112352;1242;21958;-85
2023/06/12 02:43:06;;;;;;;13.00;7.30;;;;;;;14.34;58.10;100932.96;113482;1235;21970;-83
2023/06/12 02:45:53;;;;;;;11.90;7.40;;;;;;;14.34;58.20;100933.84;113146;1236;21941;-82
2023/06/12 02:48:23;;;;;;;9.50;7.80;;;;;;;14.34;58.38;100934.20;113155;1236;23749;-81
2023/06/12 02:51:00;;;;;;;8.50;7.60;;;;;;;14.34;58.54;100932.63;113401;1236;21950;-83
2023/06/12 02:53:48;;;;;;;7.60;6.80;;;;;;;14.33;58.79;100935.80;113441;1236;21959;-83
2023/06/12 02:56:21;;;;;;;17.90;8.40;;;;;;;14.33;58.98;100936.86;113333;1236;22242;-83
2023/06/12 02:58:56;;;;;;;9.70;8.10;;;;;;;14.36;59.05;100941.99;112501;1243;21961;-81
2023/06/12 03:01:29;;;;;;;10.40;7.70;;;;;;;14.37;58.97;100942.81;112865;1242;22179;-82
2023/06/12 03:04:09;;;;;;;9.00;8.10;;;;;;;14.40;59.32;100946.89;112427;1242;21951;-83
2023/06/12 03:06:55;;;;;;;8.80;7.30;;;;;;;14.43;59.44;100946.59;112397;1242;22012;-83
2023/06/12 03:09:38;;;;;;;8.20;7.40;;;;;;;14.46;59.45;100944.19;112061;1242;22853;-82
2023/06/12 03:12:14;;;;;;;10.40;8.90;;;;;;;14.49;59.58;100947.70;112069;1248;23747;-84
2023/06/12 03:14:50;;;;;;;9.20;7.90;;;;;;;14.51;59.56;100947.77;112058;1248;21959;-82
2023/06/12 03:17:35;;;;;;;13.10;10.00;;;;;;;14.54;59.57;100948.00;111971;1248;21960;-83
2023/06/12 03:20:11;;;;;;;8.60;7.70;;;;;;;14.56;59.62;100947.73;112042;1248;21959;-83
2023/06/12 03:22:53;;;;;;;10.40;7.30;;;;;;;14.61;59.71;100948.77;112074;1241;21986;-83
2023/06/12 03:25:26;;;;;;;8.90;8.00;;;;;;;14.65;59.83;100950.17;112651;1241;23044;-83
2023/06/12 03:27:58;;;;;;;10.80;6.90;;;;;;;14.70;59.75;100951.20;113186;1236;21974;-84
2023/06/12 03:30:31;;;;;;;8.40;7.30;;;;;;;14.74;59.61;100949.95;113409;1236;21900;-82
2023/06/12 03:33:04;;;;;;;14.30;8.90;;;;;;;14.76;59.73;100952.45;113441;1236;21916;-81
2023/06/12 03:35:33;;;;;;;10.90;7.80;;;;;;;14.79;59.75;100957.77;113110;1236;21977;-82
2023/06/12 03:38:24;;;;;;;10.70;8.10;;;;;;;14.79;59.84;100956.54;113492;1236;23500;-82
2023/06/12 03:41:15;;;;;;;8.80;7.90;;;;;;;14.84;59.97;100955.80;112677;1242;23030;-84
2023/06/12 03:43:45;;;;;;;9.30;6.70;;;;;;;14.90;60.05;100961.69;112392;1242;21946;-82
2023/06/12 03:46:30;;;;;;;10.20;7.70;;;;;;;14.92;60.03;100964.54;112140;1247;21957;-82
2023/06/12 03:49:12;;;;;;;18.50;9.80;;;;;;;14.95;59.86;100963.55;111825;1250;21959;-82
2023/06/12 03:51:44;;;;;;;11.30;8.20;;;;;;;14.99;59.96;100962.48;111907;1250;23729;-83
2023/06/12 03:54:23;;;;;;;11.90;7.90;;;;;;;15.03;60.01;100966.50;111749;1249;22805;-83
2023/06/12 03:56:58;;;;;;;14.00;7.80;;;;;;;15.07;59.89;100963.33;111449;1254;21965;-81
2023/06/12 03:59:52;;;;;;;11.00;8.10;;;;;;;15.11;60.04;100961.54;111661;1250;22378;-83
2023/06/12 04:02:25;;;;;;;11.50;7.90;;;;;;;15.18;60.00;100965.27;111521;1250;21955;-82
2023/06/12 04:04:58;;;;;;;10.40;7.60;;;;;;;15.25;59.71;100957.23;112197;1246;23016;-82
2023/06/12 04:07:39;;;;;;;13.80;8.20;;;;;;;15.28;59.83;100967.08;111902;1248;21941;-82
2023/06/12 04:10:22;;;;;;;10.50;7.70;;;;;;;15.36;59.80;100966.70;112028;1248;22711;-83
2023/06/12 04:13:01;;;;;;;11.70;7.60;;;;;;;15.42;59.93;100959.08;112008;1248;21960;-84
2023/06/12 04:15:41;;;;;;;9.70;7.90;;;;;;;15.54;59.81;100956.52;112344;1242;21969;-82
2023/06/12 04:18:14;;;;;;;8.60;6.50;;;;;;;15.65;59.70;100957.05;112457;1234;21952;-83
2023/06/12 04:21:04;;;;;;;9.10;8.10;;;;;;;15.78;59.82;100962.02;112103;1247;21942;-84
2023/06/12 04:23:55;;;;;;;8.80;7.90;;;;;;;15.96;59.84;100961.34;112252;1247;21958;-80
2023/06/12 04:26:28;;;;;;;9.90;6.80;;;;;;;16.16;59.63;100963.62;112731;1241;22244;-81
2023/06/12 04:29:14;;;;;;;10.40;7.70;;;;;;;16.37;59.17;100966.41;113035;1241;21974;-82
2023/06/12 04:31:54;;;;;;;8.40;6.50;;;;;;;16.57;58.75;100972.42;112788;1242;23590;-82
2023/06/12 04:34:30;;;;;;;7.90;7.00;;;;;;;16.75;58.44;100975.31;112738;1241;23629;-82
2023/06/12 04:37:13;;;;;;;12.30;7.10;;;;;;;16.96;58.22;100976.69;112762;1241;24294;-82
2023/06/12 04:39:48;;;;;;;6.80;6.00;;;;;;;17.20;57.65;100971.69;112478;1241;21988;-82
2023/06/12 04:42:17;;;;;;;14.50;6.70;;;;;;;17.46;57.38;100970.21;112684;1244;21993;-84
2023/06/12 04:44:53;;;;;;;15.60;6.60;;;;;;;17.84;57.44;100969.62;112357;1244;22020;-82
2023/06/12 04:47:24;;;;;;;11.90;7.60;;;;;;;18.28;56.86;100971.63;112509;1244;23581;-82
2023/06/12 04:50:10;;;;;;;8.50;5.80;;;;;;;18.90;56.83;100972.95;112672;1243;21926;-82
2023/06/12 04:52:51;;;;;;;7.40;5.70;;;;;;;19.46;54.22;100974.33;112542;1244;22974;-81
2023/06/12 04:55:35;;;;;;;23.00;20.40;;;;;;;19.85;52.80;100974.23;111747;1249;21953;-81
2023/06/12 04:58:08;;;;;;;8.40;6.60;;;;;;;20.22;51.54;100973.31;111861;1247;22757;-81
2023/06/12 05:01:00;;;;;;;8.70;5.80;;;;;;;20.67;51.37;100979.30;112448;1242;21951;-82
2023/06/12 05:03:33;;;;;;;6.10;5.30;;;;;;;21.26;50.64;100974.88;112601;1242;22021;-82
2023/06/12 05:06:09;;;;;;;11.00;5.70;;;;;;;21.88;49.20;100976.57;112542;1245;22697;-83
2023/06/12 05:08:44;;;;;;;;;;;;;;;22.34;47.29;100976.44;111861;1249;21990;-82
2023/06/12 05:11:21;;;;;;;7.90;5.00;;;;;;;22.55;46.32;100974.48;111617;1250;22052;-81
2023/06/12 05:13:51;;;;;;;12.00;5.60;;;;;;;22.88;46.16;100978.95;111952;1247;22199;-84
2023/06/12 05:16:20;;;;;;;15.90;5.50;;;;;;;23.21;45.11;100976.29;111914;1247;22639;-80
2023/06/12 05:18:55;;;;;;;8.00;5.10;;;;;;;23.52;44.29;100977.89;112212;1246;23772;-80
2023/06/12 05:21:38;;;;;;;9.90;5.50;;;;;;;23.76;42.93;100981.29;112010;1247;23691;-82
2023/06/12 05:24:15;;;;;;;10.80;5.10;;;;;;;23.76;42.64;100976.58;112316;1244;23583;-83
2023/06/12 05:27:06;;;;;;;7.40;5.00;;;;;;;23.93;42.01;100976.45;112545;1241;22005;-84
2023/06/12 05:29:43;;;;;;;8.90;5.40;;;;;;;23.96;41.65;100980.33;113064;1235;21991;-83
2023/06/12 05:32:19;;;;;;;8.30;4.80;;;;;;;24.07;41.83;100978.10;113230;1236;22373;-82
2023/06/12 05:35:33;;;;;;;7.70;5.20;;;;;;;24.35;41.36;100981.93;113280;1236;21912;-84
2023/06/12 05:38:37;;;;;;;8.40;5.10;;;;;;;24.58;40.82;100983.39;113324;1236;21975;-84
2023/06/12 05:41:08;;;;;;;6.90;5.60;;;;;;;24.79;40.10;100984.73;113249;1236;21942;-84
2023/06/12 05:43:45;;;;;;;6.90;5.20;;;;;;;24.87;39.47;100989.59;113225;1236;23675;-83
2023/06/12 05:46:19;;;;;;;13.70;6.10;;;;;;;24.83;39.53;100991.54;113548;1235;21941;-83
2023/06/12 05:48:55;;;;;;;9.30;6.00;;;;;;;25.07;39.57;100985.48;113369;1236;21982;-83
2023/06/12 05:51:52;;;;;;;7.50;5.60;;;;;;;25.32;38.44;100988.28;113507;1235;21955;-83
2023/06/12 05:54:26;;;;;;;8.50;5.50;;;;;;;25.45;38.37;100988.89;112881;1241;22084;-83
2023/06/12 05:57:16;;;;;;;6.50;4.90;;;;;;;25.54;37.57;100994.86;112742;1241;21997;-85
2023/06/12 06:00:15;;;;;;;11.00;4.90;;;;;;;25.47;37.55;100988.86;112934;1241;21962;-82
2023/06/12 06:02:57;;;;;;;9.20;4.40;;;;;;;25.59;37.37;100993.45;113056;1241;21962;-82
2023/06/12 06:05:34;;;;;;;4.50;4.00;;;;;;;25.58;36.57;100989.28;112686;1241;22431;-82
2023/06/12 06:08:15;;;;;;;4.90;3.60;;;;;;;25.58;36.71;100990.34;112600;1241;21950;-83
2023/06/12 06:10:51;;;;;;;8.90;3.70;;;;;;;25.77;36.70;100987.91;113096;1241;22834;-83
2023/06/12 06:13:31;;;;;;;7.40;4.40;;;;;;;25.96;35.70;100993.19;112518;1241;22708;-83
2023/06/12 06:16:11;;;;;;;8.70;4.10;;;;;;;25.67;34.76;100996.33;113123;1241;22438;-83
2023/06/12 06:19:00;;;;;;;6.60;4.00;;;;;;;25.34;35.68;100996.30;112796;1241;23964;-83
2023/06/12 06:21:34;;;;;;;5.70;3.50;;;;;;;25.34;36.28;100994.39;112393;1245;21992;-83
2023/06/12 06:24:07;;;;;;;5.50;3.50;;;;;;;25.51;36.08;100993.17;112653;1245;21991;-83
2023/06/12 06:26:51;;;;;;;4.90;3.10;;;;;;;25.61;35.24;100997.95;112672;1245;21958;-82
2023/06/12 06:29:23;;;;;;;;;;;;;;;25.62;35.04;100997.70;112369;1245;23834;-83
2023/06/12 06:32:05;;;;;;;;;;;;;;;;;;;;;
2023/06/12 06:34:39;;;;;;;11.80;8.40;;;;;;;26.01;34.68;101000.55;112361;1245;21954;-81
2023/06/12 06:37:36;;;;;;;7.00;5.00;;;;;;;26.21;33.82;101002.23;112419;1245;23033;-81
2023/06/12 06:40:14;;;;;;;10.30;6.20;;;;;;;26.31;33.35;101001.86;112635;1232;23060;-82
2023/06/12 06:42:45;;;;;;;9.90;5.20;;;;;;;26.33;33.12;101000.79;112483;1241;23011;-82
2023/06/12 06:45:27;;;;;;;12.70;5.20;;;;;;;26.38;33.46;101001.05;112810;1241;21978;-82
2023/06/12 06:48:08;;;;;;;6.10;4.00;;;;;;;26.66;33.64;101000.88;112857;1241;22994;-86
2023/06/12 06:50:47;;;;;;;5.50;3.30;;;;;;;27.01;32.83;101002.15;112495;1241;22005;-85
2023/06/12 06:53:20;;;;;;;8.20;2.90;;;;;;;27.13;31.36;100997.45;112491;1241;23033;-80
2023/06/12 06:56:02;;;;;;;;;;;;;;;;;;;;;
2023/06/12 06:58:37;;;;;;;8.20;2.80;;;;;;;26.96;30.55;100999.11;112637;1235;23102;-81
2023/06/12 07:01:29;;;;;;;3.40;2.50;;;;;;;26.87;30.31;100999.58;113448;1236;23675;-82
2023/06/12 07:04:06;;;;;;;6.30;2.80;;;;;;;26.97;30.66;100999.19;113410;1236;22712;-82
2023/06/12 07:06:45;;;;;;;4.30;2.50;;;;;;;27.11;30.05;100998.91;113317;1236;21947;-81
2023/06/12 07:09:25;;;;;;;7.90;3.10;;;;;;;27.12;29.67;100998.36;113516;1236;21950;-81
2023/06/12 07:12:04;;;;;;;7.10;2.70;;;;;;;27.14;29.20;100997.54;113261;1236;23085;-84
2023/06/12 07:14:38;;;;;;;6.90;3.20;;;;;;;27.16;29.45;100995.70;113231;1235;21908;-83
2023/06/12 07:17:29;;;;;;;8.20;2.90;;;;;;;27.15;29.40;100994.52;113359;1236;22248;-81
2023/06/12 07:20:22;;;;;;;;;;;;;;;;;;;;;
2023/06/12 07:23:31;;;;;;;5.00;3.00;;;;;;;27.38;29.35;100993.23;113572;1236;21969;-81
2023/06/12 07:26:10;;;;;;;7.30;2.80;;;;;;;27.64;28.68;100985.34;111417;1236;2689164;-82
2023/06/12 07:29:08;;;;;;;3.90;2.40;;;;;;;27.53;27.98;100983.46;113368;1235;23689;-82
2023/06/12 07:31:41;;;;;;;5.90;2.30;;;;;;;27.27;28.17;100985.89;113282;1235;21965;-83
2023/06/12 07:34:28;;;;;;;11.00;3.30;;;;;;;27.31;28.09;100983.71;113202;1236;21967;-82
2023/06/12 07:37:37;;;;;;;10.50;2.50;;;;;;;27.04;27.34;100979.36;113348;1236;21975;-82
2023/06/12 07:40:17;;;;;;;6.40;2.50;;;;;;;26.78;27.37;100977.27;112644;1242;21983;-83
2023/06/12 07:43:10;;;;;;;8.30;2.30;;;;;;;26.63;27.32;100969.74;112463;1242;22401;-81
2023/06/12 07:45:45;;;;;;;5.10;2.20;;;;;;;26.68;27.17;100974.59;112257;1246;22324;-82
2023/06/12 07:48:22;;;;;;;3.90;2.60;;;;;;;26.82;26.90;100978.29;112169;1246;23053;-82
2023/06/12 07:51:08;;;;;;;3.80;2.30;;;;;;;27.09;26.75;100975.31;111580;1251;23684;-83
2023/06/12 07:53:50;;;;;;;4.70;2.70;;;;;;;27.45;26.31;100975.48;111763;1251;23681;-82
2023/06/12 07:56:31;;;;;;;6.20;2.10;;;;;;;27.85;25.64;100969.77;111772;1251;21975;-82
2023/06/12 07:59:16;;;;;;;9.30;2.00;;;;;;;27.85;23.77;100974.43;112501;1245;22100;-82
2023/06/12 08:02:01;;;;;;;7.60;2.50;;;;;;;27.08;23.41;100973.45;112394;1245;23754;-81
2023/06/12 08:04:42;;;;;;;8.40;2.90;;;;;;;26.78;24.72;100969.91;112388;1242;22009;-85
2023/06/12 08:07:30;;;;;;;10.20;2.30;;;;;;;26.87;24.26;100972.48;112822;1242;22196;-83
2023/06/12 08:10:07;;;;;;;6.70;2.30;;;;;;;26.80;23.70;100972.06;112987;1235;22256;-81
2023/06/12 08:12:43;;;;;;;6.00;3.00;;;;;;;26.79;24.15;100965.60;113391;1236;22959;-80
2023/06/12 08:15:14;;;;;;;7.90;2.90;;;;;;;26.82;24.21;100965.04;113288;1236;21933;-81
2023/06/12 08:17:55;;;;;;;6.80;2.70;;;;;;;26.53;23.90;100965.77;113109;1235;23604;-80
2023/06/12 08:20:25;;;;;;;4.90;2.00;;;;;;;26.30;23.76;100967.17;113435;1236;21954;-81
2023/06/12 08:23:03;;;;;;;5.20;1.80;;;;;;;26.23;23.83;100964.77;113284;1236;21980;-82
2023/06/12 08:25:36;;;;;;;8.40;2.70;;;;;;;26.37;23.83;100961.70;113042;1240;22610;-82
2023/06/12 08:28:08;;;;;;;6.00;1.70;;;;;;;26.66;23.91;100958.73;112650;1241;21965;-82
2023/06/12 08:30:50;;;;;;;7.60;3.50;;;;;;;27.02;23.26;100954.85;112849;1240;21987;-82
2023/06/12 08:33:21;;;;;;;6.10;2.50;;;;;;;27.31;22.73;100953.13;113075;1240;23574;-81
2023/06/12 08:36:10;;;;;;;26.50;3.60;;;;;;;27.48;22.07;100955.74;112395;1245;21954;-81
2023/06/12 08:38:56;;;;;;;6.80;2.00;;;;;;;27.48;21.95;100949.73;112269;1248;24337;-80
2023/06/12 08:41:34;;;;;;;6.30;2.10;;;;;;;27.58;21.87;100959.08;111659;1252;21994;-80
2023/06/12 08:44:15;;;;;;;5.60;1.80;;;;;;;27.53;21.55;100953.51;111498;1253;22020;-81
2023/06/12 08:46:55;;;;;;;10.20;2.20;;;;;;;27.55;21.49;100942.16;111609;1252;21981;-80
2023/06/12 08:49:31;;;;;;;9.30;2.30;;;;;;;27.68;21.37;100936.95;111533;1252;21963;-81
2023/06/12 08:52:10;;;;;;;7.40;2.00;;;;;;;27.69;21.05;100936.85;111198;1257;21988;-80
2023/06/12 08:54:50;;;;;;;5.30;2.00;;;;;;;27.62;21.37;100941.46;110560;1263;21995;-81
2023/06/12 08:57:24;;;;;;;8.70;1.90;;;;;;;27.55;20.94;100949.30;110462;1264;22314;-81
2023/06/12 09:00:06;;;;;;;3.60;1.70;;;;;;;27.29;20.70;100941.35;110661;1259;21995;-81
2023/06/12 09:02:53;;;;;;;5.50;2.10;;;;;;;27.35;20.80;100936.13;110987;1256;22762;-78
2023/06/12 09:05:38;;;;;;;4.30;1.40;;;;;;;27.36;20.43;100930.30;111128;1256;21964;-81
2023/06/12 09:08:21;;;;;;;6.30;1.70;;;;;;;27.30;20.42;100929.88;111551;1252;21989;-81
2023/06/12 09:10:52;;;;;;;5.60;1.80;;;;;;;27.39;20.48;100932.66;111841;1246;22190;-81
2023/06/12 09:13:24;;;;;;;5.50;1.70;;;;;;;27.34;20.14;100936.95;112299;1241;23048;-81
2023/06/12 09:15:55;;;;;;;4.00;1.90;;;;;;;27.11;20.37;100929.36;113256;1236;22924;-81
2023/06/12 09:18:36;;;;;;;6.20;1.50;;;;;;;27.11;20.26;100927.74;113181;1236;21938;-80
2023/06/12 09:21:09;;;;;;;2.40;1.20;;;;;;;27.17;20.06;100929.92;112713;1241;22015;-82
2023/06/12 09:23:54;;;;;;;6.40;1.40;;;;;;;27.28;19.82;100925.77;112836;1241;21951;-81
2023/06/12 09:26:32;;;;;;;5.20;1.90;;;;;;;27.34;19.49;100928.71;112875;1241;21942;-80
2023/06/12 09:29:06;;;;;;;3.70;1.50;;;;;;;27.33;19.51;100923.80;113192;1241;21951;-81
2023/06/12 09:31:42;;;;;;;6.80;1.80;;;;;;;27.29;19.76;100918.58;112948;1240;22234;-81
2023/06/12 09:34:13;;;;;;;4.00;1.50;;;;;;;27.20;19.83;100926.41;112844;1241;21978;-80
2023/06/12 09:36:44;;;;;;;6.20;1.90;;;;;;;27.05;19.54;100924.27;112469;1241;22740;-80
2023/06/12 09:39:28;;;;;;;7.70;2.60;;;;;;;26.95;19.64;100920.05;113171;1236;21978;-80
2023/06/12 09:42:02;;;;;;;3.30;1.50;;;;;;;26.95;19.90;100919.56;113781;1236;21982;-79
2023/06/12 09:44:52;;;;;;;6.70;1.90;;;;;;;26.95;19.61;100918.27;113328;1239;22700;-81
2023/06/12 09:47:24;;;;;;;5.20;1.40;;;;;;;26.76;19.68;100920.45;113494;1239;21967;-81
2023/06/12 09:49:57;;;;;;;11.70;2.50;;;;;;;26.56;19.86;100904.55;113163;1239;22968;-79
2023/06/12 09:52:27;;;;;;;4.50;1.70;;;;;;;26.64;19.99;100902.20;113424;1239;22949;-81
2023/06/12 09:55:05;;;;;;;4.90;1.70;;;;;;;26.83;20.08;100903.58;113257;1239;21969;-80
2023/06/12 09:57:38;;;;;;;8.70;1.70;;;;;;;26.92;19.83;100909.87;112999;1238;23605;-80
2023/06/12 10:00:11;;;;;;;3.40;1.80;;;;;;;26.82;19.51;100906.91;112180;1245;21970;-80
2023/06/12 10:02:49;;;;;;;4.10;1.80;;;;;;;26.64;19.64;100901.45;111938;1248;23601;-81
2023/06/12 10:05:38;;;;;;;;;;;;;;;;;;;;;
2023/06/12 10:08:09;;;;;;;3.60;1.40;;;;;;;26.28;19.79;100899.25;111530;1254;24550;-80
2023/06/12 10:10:43;;;;;;;6.40;1.90;;;;;;;26.27;19.83;100899.45;111189;1258;23755;-80
2023/06/12 10:13:14;;;;;;;5.00;1.70;;;;;;;26.18;19.58;100892.48;111209;1258;22492;-77
2023/06/12 10:15:47;;;;;;;9.40;2.20;;;;;;;26.09;19.63;100890.14;110797;1261;22056;-80
2023/06/12 10:18:30;;;;;;;11.70;2.80;;;;;;;26.04;19.97;100889.04;111080;1259;22044;-83
2023/06/12 10:21:06;;;;;;;4.00;1.90;;;;;;;26.10;20.11;100885.41;111321;1254;21947;-85
2023/06/12 10:23:37;;;;;;;3.30;1.70;;;;;;;26.17;20.06;100886.38;111462;1246;22469;-85
2023/06/12 10:26:13;;;;;;;5.60;2.40;;;;;;;26.19;20.01;100890.13;111774;1249;21971;-86
2023/06/12 10:28:58;;;;;;;19.90;3.70;;;;;;;26.07;20.05;100876.77;112293;1247;24297;-86
2023/06/12 10:31:40;;;;;;;31.10;4.10;;;;;;;25.98;20.24;100882.43;112389;1246;21984;-87
2023/06/12 10:34:10;;;;;;;6.60;2.00;;;;;;;25.79;20.23;100882.96;112173;1246;21964;-86
2023/06/12 10:36:49;;;;;;;7.00;1.80;;;;;;;25.50;20.14;100884.74;112167;1246;22374;-85
2023/06/12 10:39:25;;;;;;;5.40;1.90;;;;;;;25.22;20.54;100874.77;111811;1252;21989;-84
2023/06/12 10:42:56;;;;;;;2.50;1.20;;;;;;;25.11;20.82;100867.63;112567;1242;22115;-86
2023/06/12 10:45:37;;;;;;;2.90;1.80;;;;;;;25.04;21.01;100868.61;112086;1248;21957;-85
2023/06/12 10:48:19;;;;;;;6.10;2.00;;;;;;;25.06;20.94;100868.75;112127;1248;21979;-86
2023/06/12 10:50:53;;;;;;;4.90;1.80;;;;;;;24.98;20.79;100870.96;111988;1248;21967;-81
2023/06/12 10:53:29;;;;;;;5.90;2.50;;;;;;;24.93;21.09;100871.02;112001;1248;21988;-85
2023/06/12 10:56:06;;;;;;;4.80;1.60;;;;;;;24.98;21.09;100868.66;111985;1248;21979;-82
2023/06/12 10:58:44;;;;;;;6.50;2.50;;;;;;;24.85;20.65;100865.84;112153;1242;22054;-85
2023/06/12 11:01:48;;;;;;;6.60;1.90;;;;;;;24.61;20.90;100863.56;112896;1242;21948;-80
2023/06/12 11:04:21;;;;;;;5.40;1.40;;;;;;;24.52;21.23;100858.65;112589;1242;23191;-80
2023/06/12 11:06:57;;;;;;;7.50;2.40;;;;;;;24.54;21.23;100853.70;112222;1247;21957;-82
2023/06/12 11:09:43;;;;;;;3.40;1.60;;;;;;;24.51;21.21;100848.77;112443;1246;21980;-82
2023/06/12 11:12:16;;;;;;;6.20;1.70;;;;;;;24.46;21.31;100844.23;112371;1246;22022;-79
2023/06/12 11:14:48;;;;;;;12.10;3.00;;;;;;;24.36;21.39;100845.15;111826;1252;21940;-81
2023/06/12 11:17:20;;;;;;;10.10;2.60;;;;;;;24.17;21.56;100841.95;111849;1252;23298;-84
2023/06/12 11:20:04;;;;;;;8.10;2.20;;;;;;;24.14;21.72;100837.09;111781;1252;22466;-81
2023/06/12 11:22:57;;;;;;;3.00;1.80;;;;;;;24.10;21.44;100836.69;112053;1247;23078;-81
2023/06/12 11:25:44;;;;;;;4.10;1.40;;;;;;;24.08;21.18;100831.69;112236;1246;22420;-85
2023/06/12 11:28:28;;;;;;;8.30;1.90;;;;;;;24.08;21.30;100830.49;111840;1251;22002;-84
2023/06/12 11:31:07;;;;;;;9.50;2.20;;;;;;;24.04;21.44;100829.39;112010;1251;21934;-84
2023/06/12 11:33:43;;;;;;;4.60;2.00;;;;;;;24.07;21.43;100832.58;111762;1251;23715;-83
2023/06/12 11:36:12;;;;;;;6.20;2.10;;;;;;;24.05;21.58;100830.43;111581;1257;22478;-83
2023/06/12 11:38:41;;;;;;;6.70;2.80;;;;;;;24.01;21.55;100816.16;111234;1261;21978;-83
2023/06/12 11:41:17;;;;;;;6.20;1.70;;;;;;;24.00;21.96;100817.70;111260;1261;21957;-85
2023/06/12 11:43:50;;;;;;;11.90;2.60;;;;;;;23.92;21.88;100816.23;111165;1257;21996;-83
2023/06/12 11:46:25;;;;;;;3.60;2.10;;;;;;;23.91;22.05;100813.84;111541;1254;21989;-84
2023/06/12 11:48:58;;;;;;;9.70;2.20;;;;;;;23.96;22.21;100814.09;111158;1259;22216;-84
2023/06/12 11:51:33;;;;;;;5.00;2.20;;;;;;;23.95;22.10;100812.04;111191;1253;23652;-85
2023/06/12 11:54:07;;;;;;;6.50;1.50;;;;;;;23.91;21.87;100801.19;111952;1248;21988;-85
2023/06/12 11:56:45;;;;;;;4.80;1.80;;;;;;;23.94;21.96;100799.32;112390;1241;23648;-84
2023/06/12 11:59:34;;;;;;;7.20;2.10;;;;;;;24.02;21.94;100802.78;112827;1241;21966;-80
2023/06/12 12:02:04;;;;;;;7.20;1.90;;;;;;;23.99;21.81;100807.80;111996;1248;22143;-84
2023/06/12 12:04:46;;;;;;;4.40;2.30;;;;;;;23.93;21.71;100795.73;112196;1248;23700;-82
2023/06/12 12:07:17;;;;;;;8.90;2.30;;;;;;;23.92;21.76;100803.97;112521;1242;23629;-82
2023/06/12 12:09:50;;;;;;;4.70;2.20;;;;;;;23.92;21.99;100803.83;112632;1242;21967;-80
2023/06/12 12:12:21;;;;;;;10.10;1.80;;;;;;;23.96;21.83;100805.23;112429;1242;21946;-82
2023/06/12 12:14:53;;;;;;;4.80;2.70;;;;;;;23.91;21.47;100802.10;112509;1242;21958;-82
2023/06/12 12:17:38;;;;;;;7.10;2.30;;;;;;;23.88;21.55;100795.57;111775;1247;23600;-84
2023/06/12 12:20:21;;;;;;;7.70;3.00;;;;;;;23.92;21.71;100791.67;112324;1241;23778;-83
2023/06/12 12:23:00;;;;;;;7.70;1.70;;;;;;;23.94;21.67;100793.52;112327;1245;21970;-81